메인 페이지
METAR-TAF:

METAR-TAF

공항 :

털사, 오클라호마, 미국

위도: 36-11-51N, 경도: 095-53-11W, 고도: 206m

현재 날씨관측

예보는 16분 전, 14:53시(UTC)에 발표되었습니다.
15kt, 순간 최대 풍속 24kt
온도 23°C
습도 78%
기압 1015 hPa
시정: 16.1km
고도 2000ft 상공 구름 조금

METAR: KTUL 221453Z 17015G24KT 10SM FEW020 23/19 A2996 RMK AO2 SLP137 T02330189 53007

시각: 10:09 (15:09 UTC)

예보

예보는 3 시간 49분 전, 11:20시(UTC)에 발표되었습니다.
예보 대상 시간: 22일 12시부터 23일 12시까지 (UTC)
남남동12kt
시정: 10km
고도 4000ft 상공 구름 보통
22일 1500시부터 (UTC)
20kt, 순간 최대 풍속 30kt
시정: 10km
고도 5000ft 상공 구름 보통
고도 25000ft 상공 구름 많음
23일 0000시부터 (UTC)
13kt
시정: 10km
고도 4000ft 상공 구름 보통
23일 0800시부터 (UTC)
북북서16kt, 순간 최대 풍속 24kt
시정: 8.0km
고도 2500ft 상공 흐림
약한소나기, 박무
일시적
23일 08시부터 23일 10시까지 (UTC)
시정: 4.8km
고도 1500ft 상공 흐림, 적란운.
뇌우, 비, 박무

TAF: KTUL 221120Z 2212/2312 16012KT P6SM SCT040 WS020/19040KT FM221500 17020G30KT P6SM SCT050 BKN250 FM230000 17013KT P6SM SCT040 FM230800 33016G24KT 5SM -SHRA BR OVC025 TEMPO 2308/2310 3SM TSRA BR OVC015CB

4,000개 이상의 공항 관측 자료 및 예보 (METAR 및 TAF 보고).

지도상에서 검색 가능한 기상관측소가 노란 점과 빨간 점으로 표시되어 있습니다.

기상관측소 명을 보려면 표시 위로 마우스를 이동하세요.

날씨 관측과 예보를 보려면 클릭하세요.

지도 변경 : 확대하려면 엑스 표시가 있는 녹색 버튼, 축소하려면 빼기 표시가 있는 녹색 버튼, 다음 페이지의 지도를 보려면 녹색 화살표를 클릭하세요.


METAR-TAF: